createdAt,value
2019-05-13T00:02:34.720Z,6.95
2019-05-13T00:05:10.404Z,6.75
2019-05-13T00:07:49.140Z,5.47
2019-05-13T00:10:18.300Z,5.97
2019-05-13T00:12:53.801Z,7.08
2019-05-13T00:15:24.175Z,5.78
2019-05-13T00:18:00.608Z,6.30
2019-05-13T00:20:33.847Z,6.15
2019-05-13T00:23:09.621Z,6.10
2019-05-13T00:25:51.241Z,5.47
2019-05-13T00:28:24.650Z,5.08
2019-05-13T00:31:03.432Z,6.35
2019-05-13T00:33:46.040Z,5.87
2019-05-13T00:36:26.361Z,6.22
2019-05-13T00:39:03.917Z,4.42
2019-05-13T00:41:33.654Z,3.83
2019-05-13T00:44:17.380Z,5.30
2019-05-13T00:46:55.620Z,5.67
2019-05-13T00:49:31.228Z,4.97
2019-05-13T00:52:00.960Z,4.33
2019-05-13T00:54:36.300Z,4.22
2019-05-13T00:57:13.351Z,5.12
2019-05-13T00:59:54.001Z,4.30
2019-05-13T01:02:24.338Z,4.67
2019-05-13T01:04:57.183Z,4.67
2019-05-13T01:07:38.123Z,4.47
2019-05-13T01:10:13.334Z,6.80
2019-05-13T01:12:45.624Z,5.47
2019-05-13T01:15:19.223Z,5.20
2019-05-13T01:17:54.984Z,7.12
2019-05-13T01:20:39.222Z,4.22
2019-05-13T01:23:14.823Z,5.80
2019-05-13T01:25:54.580Z,4.35
2019-05-13T01:28:40.103Z,5.05
2019-05-13T01:31:18.323Z,4.50
2019-05-13T01:33:48.223Z,4.55
2019-05-13T01:36:26.223Z,4.25
2019-05-13T01:38:59.202Z,4.92
2019-05-13T01:41:33.399Z,5.30
2019-05-13T01:44:04.063Z,4.95
2019-05-13T01:46:48.122Z,3.75
2019-05-13T01:49:24.078Z,5.25
2019-05-13T01:52:16.822Z,4.50
2019-05-13T01:54:45.908Z,4.22
2019-05-13T01:57:26.282Z,5.12
2019-05-13T02:00:09.103Z,4.35
2019-05-13T02:02:44.775Z,4.70
2019-05-13T02:05:21.222Z,4.17
2019-05-13T02:08:00.676Z,4.12
2019-05-13T02:10:49.190Z,4.25
2019-05-13T02:13:18.062Z,4.15
2019-05-13T02:15:51.161Z,3.92
2019-05-13T02:18:33.924Z,3.58
2019-05-13T02:21:06.467Z,5.42
2019-05-13T02:23:37.904Z,4.00
2019-05-13T02:28:49.321Z,3.47
2019-05-13T02:31:41.336Z,4.60
2019-05-13T02:36:34.136Z,4.20
2019-05-13T02:39:05.431Z,3.52
2019-05-13T02:44:06.562Z,5.05
2019-05-13T02:46:35.377Z,4.58
2019-05-13T02:49:04.421Z,3.22
2019-05-13T02:51:35.342Z,4.00
2019-05-13T02:54:04.373Z,5.12
2019-05-13T02:56:33.582Z,4.28
2019-05-13T02:59:03.770Z,3.27
2019-05-13T03:01:33.583Z,2.90
2019-05-13T03:04:03.254Z,3.50
2019-05-13T03:06:34.885Z,4.53
2019-05-13T03:09:07.082Z,3.72
2019-05-13T03:11:36.241Z,3.47
2019-05-13T03:14:12.500Z,4.12
2019-05-13T03:16:45.080Z,3.92
2019-05-13T03:19:14.581Z,3.65
2019-05-13T03:21:43.780Z,3.30
2019-05-13T03:24:13.463Z,2.80
2019-05-13T03:26:47.105Z,2.60
2019-05-13T03:29:17.342Z,3.37
2019-05-13T03:31:48.404Z,3.22
2019-05-13T03:34:17.725Z,4.17
2019-05-13T03:36:47.085Z,3.00
2019-05-13T03:39:17.761Z,4.37
2019-05-13T03:41:46.982Z,3.17
2019-05-13T03:44:17.263Z,3.15
2019-05-13T03:46:53.363Z,3.77
2019-05-13T03:49:27.021Z,2.92
2019-05-13T03:51:56.042Z,3.00
2019-05-13T03:54:26.263Z,3.35
2019-05-13T03:56:58.110Z,2.65
2019-05-13T03:59:27.400Z,3.10
2019-05-13T04:02:02.280Z,2.77
2019-05-13T04:04:32.479Z,2.98
2019-05-13T04:07:03.190Z,4.87
2019-05-13T04:09:36.120Z,2.87
2019-05-13T04:14:34.043Z,2.95
2019-05-13T04:17:04.629Z,2.70
2019-05-13T04:19:35.160Z,2.67
2019-05-13T04:22:04.469Z,3.08
2019-05-13T04:24:33.749Z,3.05
2019-05-13T04:27:04.561Z,3.22
2019-05-13T04:29:35.001Z,4.53
2019-05-13T04:32:05.603Z,2.98
2019-05-13T04:34:36.362Z,2.22
2019-05-13T04:39:45.810Z,2.50
2019-05-13T04:42:06.080Z,2.85
2019-05-13T04:44:38.161Z,2.50
2019-05-13T04:47:12.969Z,2.58
2019-05-13T04:49:45.883Z,2.62
2019-05-13T04:52:22.068Z,3.35
2019-05-13T04:54:53.582Z,3.27
2019-05-13T04:57:26.580Z,3.15
2019-05-13T04:59:55.450Z,3.08
2019-05-13T05:02:39.941Z,3.40
2019-05-13T05:05:32.758Z,3.80
2019-05-13T05:08:14.409Z,4.28
2019-05-13T05:10:58.260Z,5.25
2019-05-13T05:14:03.641Z,3.15
2019-05-13T05:16:57.822Z,4.47
2019-05-13T05:19:47.594Z,5.40
2019-05-13T05:22:41.967Z,5.65
2019-05-13T05:25:29.279Z,3.58
2019-05-13T05:28:25.620Z,7.28
2019-05-13T05:31:06.080Z,3.72
2019-05-13T05:33:56.262Z,5.95
2019-05-13T05:36:35.635Z,4.30
2019-05-13T05:39:13.302Z,4.65
2019-05-13T05:41:43.381Z,2.77
2019-05-13T05:44:13.601Z,6.78
2019-05-13T05:46:44.320Z,3.55
2019-05-13T05:51:43.860Z,5.28
2019-05-13T05:54:14.798Z,3.42
2019-05-13T06:01:43.818Z,3.65
2019-05-13T06:04:14.641Z,2.57
2019-05-13T06:06:43.940Z,2.42
2019-05-13T06:09:13.001Z,2.98
2019-05-13T06:11:42.803Z,4.40
2019-05-13T06:14:12.741Z,4.12
2019-05-13T06:16:42.667Z,3.65
2019-05-13T06:19:12.580Z,5.28
2019-05-13T06:21:42.940Z,6.90
2019-05-13T06:24:12.187Z,9.65
2019-05-13T06:26:42.029Z,4.22
2019-05-13T06:29:11.807Z,7.25
2019-05-13T06:31:41.977Z,3.75
2019-05-13T06:34:13.901Z,4.58
2019-05-13T06:36:44.440Z,3.62
2019-05-13T06:39:13.640Z,2.90
2019-05-13T06:41:42.461Z,3.77
2019-05-13T06:44:12.149Z,4.50
2019-05-13T06:46:43.080Z,7.73
2019-05-13T06:49:12.337Z,5.03
2019-05-13T06:51:42.824Z,5.40
2019-05-13T06:54:15.180Z,7.90
2019-05-13T06:56:51.850Z,4.70
2019-05-13T06:59:22.501Z,4.65
2019-05-13T07:01:52.540Z,10.25
2019-05-13T07:04:22.032Z,6.43
2019-05-13T07:07:01.113Z,4.62
2019-05-13T07:09:23.376Z,8.63
2019-05-13T07:14:21.891Z,4.33
2019-05-13T07:16:52.449Z,6.50
2019-05-13T07:21:53.089Z,7.58
2019-05-13T07:24:26.141Z,4.65
2019-05-13T07:26:55.240Z,3.35
2019-05-13T07:29:24.382Z,8.50
2019-05-13T07:31:54.330Z,8.33
2019-05-13T07:34:24.600Z,7.83
2019-05-13T07:36:55.320Z,4.25
2019-05-13T07:39:24.280Z,6.42
2019-05-13T07:41:54.997Z,7.87
2019-05-13T07:44:25.741Z,4.90
2019-05-13T07:46:55.880Z,10.53
2019-05-13T07:49:24.980Z,3.90
2019-05-13T07:51:55.230Z,4.03
2019-05-13T07:54:24.320Z,8.10
2019-05-13T07:56:53.640Z,8.18
2019-05-13T07:59:22.543Z,5.95
2019-05-13T08:01:53.234Z,10.25
2019-05-13T08:06:54.645Z,3.35
2019-05-13T08:09:23.900Z,5.12
2019-05-13T08:12:05.158Z,9.08
2019-05-13T08:14:27.280Z,4.85
2019-05-13T08:16:56.329Z,5.05
2019-05-13T08:19:25.486Z,7.42
2019-05-13T08:21:54.519Z,3.83
2019-05-13T08:24:23.700Z,11.08
2019-05-13T08:26:53.251Z,5.42
2019-05-13T08:29:24.020Z,6.65
2019-05-13T08:31:53.101Z,3.98
2019-05-13T08:34:25.028Z,6.60
2019-05-13T08:36:55.720Z,3.67
2019-05-13T08:44:28.504Z,5.60
2019-05-13T08:46:59.040Z,5.00
2019-05-13T08:49:32.289Z,3.17
2019-05-13T08:52:01.590Z,5.83
2019-05-13T08:54:32.788Z,4.45
2019-05-13T08:59:32.089Z,5.67
2019-05-13T09:02:04.682Z,5.83
2019-05-13T09:04:34.501Z,4.42
2019-05-13T09:07:04.129Z,5.47
2019-05-13T09:09:35.780Z,7.12
2019-05-13T09:12:06.181Z,6.37
2019-05-13T09:14:35.181Z,6.45
2019-05-13T09:17:05.600Z,6.28
2019-05-13T09:19:35.068Z,6.25
2019-05-13T09:22:05.742Z,10.28
2019-05-13T09:27:04.562Z,6.80
2019-05-13T09:29:35.282Z,4.92
2019-05-13T09:34:34.720Z,5.58
2019-05-13T09:37:05.420Z,8.93
2019-05-13T09:42:04.489Z,8.85
2019-05-13T09:44:34.480Z,11.95
2019-05-13T09:47:04.543Z,8.15
2019-05-13T09:49:33.480Z,6.58
2019-05-13T09:52:02.800Z,10.55
2019-05-13T09:54:33.370Z,5.47
2019-05-13T09:57:04.044Z,9.20
2019-05-13T10:02:02.867Z,7.62
2019-05-13T10:04:32.073Z,7.90
2019-05-13T10:07:02.365Z,7.30
2019-05-13T10:09:32.579Z,6.17
2019-05-13T10:12:03.252Z,7.83
2019-05-13T10:17:05.966Z,11.97
2019-05-13T10:19:33.100Z,8.88
2019-05-13T10:22:03.204Z,7.10
2019-05-13T10:24:32.842Z,7.92
2019-05-13T10:27:02.585Z,7.43
2019-05-13T10:29:32.075Z,9.73
2019-05-13T10:32:02.990Z,6.28
2019-05-13T10:34:34.088Z,8.53
2019-05-13T10:37:04.360Z,4.65
2019-05-13T10:39:33.240Z,7.83
2019-05-13T10:44:33.900Z,3.62
2019-05-13T10:47:04.730Z,6.80
2019-05-13T10:49:35.540Z,6.97
2019-05-13T10:52:06.048Z,5.58
2019-05-13T10:54:36.507Z,5.20
2019-05-13T10:57:05.560Z,5.50
2019-05-13T10:59:34.429Z,6.60
2019-05-13T11:02:06.221Z,5.97
2019-05-13T11:04:35.050Z,4.60
2019-05-13T11:07:05.842Z,5.17
2019-05-13T11:12:07.761Z,4.25
2019-05-13T11:14:37.040Z,5.50
2019-05-13T11:17:06.160Z,4.33
2019-05-13T11:19:37.262Z,5.20
2019-05-13T11:22:06.582Z,4.65
2019-05-13T11:24:35.568Z,6.17
2019-05-13T11:27:05.988Z,4.53
2019-05-13T11:29:34.875Z,3.27
2019-05-13T11:32:08.282Z,5.37
2019-05-13T11:34:37.187Z,6.92
2019-05-13T11:37:08.921Z,4.87
2019-05-13T11:39:42.789Z,8.45
2019-05-13T11:42:13.711Z,6.67
2019-05-13T11:44:43.360Z,4.30
2019-05-13T11:47:13.276Z,4.62
2019-05-13T11:49:42.955Z,6.23
2019-05-13T11:52:14.261Z,7.37
2019-05-13T11:54:45.520Z,3.95
2019-05-13T11:57:16.632Z,6.10
2019-05-13T11:59:47.463Z,5.03
2019-05-13T12:02:22.925Z,10.08
2019-05-13T12:04:53.431Z,4.62
2019-05-13T12:07:23.210Z,5.55
2019-05-13T12:09:57.802Z,6.75
2019-05-13T12:12:33.675Z,5.92
2019-05-13T12:15:27.049Z,6.85
2019-05-13T12:17:33.911Z,7.62
2019-05-13T12:20:05.020Z,6.45
2019-05-13T12:25:03.560Z,5.28
2019-05-13T12:27:33.182Z,4.33
2019-05-13T12:30:06.041Z,4.95
2019-05-13T12:32:37.085Z,6.87
2019-05-13T12:35:25.800Z,5.60
2019-05-13T12:37:58.637Z,8.15
2019-05-13T12:40:28.366Z,5.90
2019-05-13T12:43:01.325Z,5.72
2019-05-13T12:45:31.880Z,4.22
2019-05-13T12:48:03.165Z,6.67
2019-05-13T12:50:34.429Z,4.20
2019-05-13T12:53:05.153Z,5.83
2019-05-13T12:55:36.789Z,3.98
2019-05-13T12:58:06.880Z,4.92
2019-05-13T13:00:36.969Z,3.75
2019-05-13T13:03:08.921Z,4.58
2019-05-13T13:05:43.114Z,6.33
2019-05-13T13:10:44.016Z,3.00
2019-05-13T13:13:13.148Z,6.03
2019-05-13T13:15:48.132Z,6.80
2019-05-13T13:18:15.178Z,5.15
2019-05-13T13:20:44.340Z,5.80
2019-05-13T13:23:13.400Z,5.42
2019-05-13T13:25:52.443Z,3.30
2019-05-13T13:28:16.027Z,4.47
2019-05-13T13:30:45.340Z,4.05
2019-05-13T13:33:15.340Z,3.35
2019-05-13T13:35:54.720Z,4.78
2019-05-13T13:38:15.660Z,4.47
2019-05-13T13:40:45.700Z,3.42
2019-05-13T13:43:23.537Z,3.95
2019-05-13T13:46:07.708Z,2.87
2019-05-13T13:50:56.603Z,4.10
2019-05-13T13:53:28.262Z,2.90
2019-05-13T13:56:01.532Z,3.10
2019-05-13T13:58:32.686Z,5.90
2019-05-13T14:01:11.606Z,3.85
2019-05-13T14:03:35.120Z,4.33
2019-05-13T14:06:26.939Z,4.03
2019-05-13T14:06:44.448Z,5.05
2019-05-13T14:07:25.286Z,4.00
2019-05-13T14:08:57.468Z,5.03
2019-05-13T14:11:28.221Z,5.17
2019-05-13T14:13:57.478Z,5.45
2019-05-13T14:16:32.484Z,4.65
2019-05-13T14:21:28.604Z,3.10
2019-05-13T14:24:21.609Z,3.25
2019-05-13T14:26:52.323Z,3.75
2019-05-13T14:29:37.385Z,3.47
2019-05-13T14:31:54.682Z,4.62
2019-05-13T14:34:23.971Z,5.42
2019-05-13T14:36:54.512Z,4.75
2019-05-13T14:39:23.360Z,3.45
2019-05-13T14:41:52.544Z,5.45
2019-05-13T14:44:22.184Z,6.80
2019-05-13T14:46:52.483Z,5.90
2019-05-13T14:49:24.770Z,3.52
2019-05-13T14:51:56.523Z,8.95
2019-05-13T14:54:31.339Z,4.35
2019-05-13T14:57:02.446Z,4.58
2019-05-13T14:59:32.180Z,5.00
2019-05-13T15:02:02.441Z,2.60
2019-05-13T15:04:32.751Z,6.45
2019-05-13T15:07:03.549Z,2.72
2019-05-13T15:09:37.659Z,3.52
2019-05-13T15:12:32.009Z,4.25
2019-05-13T15:15:01.628Z,3.15
2019-05-13T15:17:36.221Z,4.20
2019-05-13T15:20:12.119Z,5.55
2019-05-13T15:22:43.297Z,7.00
2019-05-13T15:25:16.121Z,4.00
2019-05-13T15:27:52.545Z,3.35
2019-05-13T15:30:21.971Z,4.92
2019-05-13T15:32:54.181Z,5.35
2019-05-13T15:35:28.301Z,5.00
2019-05-13T15:38:01.825Z,2.85
2019-05-13T15:40:33.221Z,5.95
2019-05-13T15:43:05.250Z,4.33
2019-05-13T15:45:36.920Z,3.20
2019-05-13T15:48:06.644Z,4.53
2019-05-13T15:50:42.197Z,3.40
2019-05-13T15:53:14.660Z,2.95
2019-05-13T15:56:03.815Z,5.28
2019-05-13T15:58:44.845Z,3.42
2019-05-13T16:01:22.903Z,3.72
2019-05-13T16:04:02.880Z,3.60
2019-05-13T16:06:33.542Z,5.72
2019-05-13T16:09:08.690Z,6.10
2019-05-13T16:11:43.266Z,7.25
2019-05-13T16:14:22.280Z,5.83
2019-05-13T16:16:54.541Z,5.17
2019-05-13T16:19:24.585Z,10.00
2019-05-13T16:22:04.816Z,10.43
2019-05-13T16:24:43.157Z,9.20
2019-05-13T16:27:15.736Z,11.90
2019-05-13T16:30:06.391Z,10.80
2019-05-13T16:32:55.882Z,12.25
2019-05-13T16:37:58.982Z,6.58
2019-05-13T16:40:28.300Z,10.30
2019-05-13T16:42:58.513Z,18.05
2019-05-13T16:45:27.835Z,13.40
2019-05-13T16:47:59.680Z,11.80
2019-05-13T16:50:31.281Z,13.85
2019-05-13T16:53:05.010Z,12.18
2019-05-13T16:55:36.704Z,11.45
2019-05-13T16:58:08.940Z,14.78
2019-05-13T17:00:38.405Z,18.45
2019-05-13T17:03:11.524Z,9.85
2019-05-13T17:05:43.961Z,10.35
2019-05-13T17:08:15.501Z,11.33
2019-05-13T17:10:45.860Z,12.25
2019-05-13T17:13:14.800Z,12.85
2019-05-13T17:15:44.363Z,13.85
2019-05-13T17:18:15.498Z,11.55
2019-05-13T17:20:48.620Z,12.25
2019-05-13T17:23:18.407Z,9.25
2019-05-13T17:25:47.280Z,15.28
2019-05-13T17:28:21.979Z,16.12
2019-05-13T17:30:58.140Z,14.60
2019-05-13T17:33:34.103Z,15.78
2019-05-13T17:36:12.360Z,14.87
2019-05-13T17:38:46.715Z,10.43
2019-05-13T17:41:16.660Z,12.80
2019-05-13T17:43:49.200Z,11.33
2019-05-13T17:46:18.796Z,9.43
2019-05-13T17:48:47.941Z,9.65
2019-05-13T17:51:22.543Z,12.10
2019-05-13T17:53:53.268Z,14.05
2019-05-13T17:56:22.564Z,15.23
2019-05-13T17:58:51.683Z,13.40
2019-05-13T18:01:21.468Z,10.98
2019-05-13T18:03:52.260Z,11.20
2019-05-13T18:06:22.381Z,13.03
2019-05-13T18:08:51.761Z,10.40
2019-05-13T18:11:21.929Z,10.78
2019-05-13T18:14:01.907Z,10.28
2019-05-13T18:16:38.790Z,10.67
2019-05-13T18:19:08.769Z,11.28
2019-05-13T18:21:39.028Z,16.15
2019-05-13T18:24:08.916Z,14.53
2019-05-13T18:26:38.180Z,8.15
2019-05-13T18:29:07.440Z,12.78
2019-05-13T18:31:41.794Z,9.83
2019-05-13T18:34:18.389Z,10.20
2019-05-13T18:36:57.652Z,13.43
2019-05-13T18:39:32.496Z,10.58
2019-05-13T18:42:02.900Z,12.25
2019-05-13T18:44:32.228Z,9.03
2019-05-13T18:47:04.180Z,14.60
2019-05-13T18:49:39.300Z,12.88
2019-05-13T18:52:11.387Z,14.18
2019-05-13T18:54:43.420Z,11.95
2019-05-13T18:57:13.100Z,14.83
2019-05-13T18:59:44.355Z,11.65
2019-05-13T19:02:15.781Z,13.60
2019-05-13T19:04:48.480Z,13.88
2019-05-13T19:07:17.422Z,12.95
2019-05-13T19:09:48.360Z,11.88
2019-05-13T19:12:31.276Z,18.90
2019-05-13T19:15:06.789Z,9.60
2019-05-13T19:17:41.347Z,14.00
2019-05-13T19:20:14.183Z,13.90
2019-05-13T19:22:43.080Z,9.05
2019-05-13T19:25:19.520Z,12.53
2019-05-13T19:27:55.761Z,11.65
2019-05-13T19:30:28.040Z,8.53
2019-05-13T19:32:58.000Z,13.05
2019-05-13T19:35:39.843Z,11.65
2019-05-13T19:38:14.160Z,11.20
2019-05-13T19:40:46.620Z,10.40
2019-05-13T19:43:15.481Z,10.10
2019-05-13T19:45:53.122Z,10.68
2019-05-13T19:48:27.180Z,8.88
2019-05-13T19:51:01.550Z,7.37
2019-05-13T19:53:35.069Z,10.68
2019-05-13T19:56:13.445Z,12.03
2019-05-13T19:58:49.220Z,10.72
2019-05-13T20:01:28.842Z,11.63
2019-05-13T20:04:02.150Z,7.97
2019-05-13T20:06:41.285Z,8.68
2019-05-13T20:09:09.960Z,8.28
2019-05-13T20:11:42.154Z,11.78
2019-05-13T20:14:12.980Z,10.63
2019-05-13T20:19:11.829Z,9.55
2019-05-13T20:21:42.578Z,12.20
2019-05-13T20:26:45.647Z,10.80
2019-05-13T20:29:15.165Z,8.53
2019-05-13T20:31:45.244Z,8.65
2019-05-13T20:34:17.221Z,10.93
2019-05-13T20:36:46.600Z,8.68
2019-05-13T20:39:16.061Z,7.03
2019-05-13T20:41:45.101Z,6.90
2019-05-13T20:44:15.620Z,9.28
2019-05-13T20:46:52.241Z,18.20
2019-05-13T20:49:26.921Z,7.37
2019-05-13T20:51:59.200Z,7.70
2019-05-13T20:54:33.100Z,8.93
2019-05-13T20:57:07.820Z,8.23
2019-05-13T20:59:41.381Z,8.40
2019-05-13T21:02:12.440Z,9.55
2019-05-13T21:04:41.480Z,7.33
2019-05-13T21:07:16.542Z,6.85
2019-05-13T21:09:51.117Z,8.93
2019-05-13T21:12:22.908Z,9.43
2019-05-13T21:14:54.901Z,7.47
2019-05-13T21:17:30.180Z,9.10
2019-05-13T21:20:17.924Z,7.72
2019-05-13T21:22:43.141Z,7.97
2019-05-13T21:25:20.500Z,8.15
2019-05-13T21:27:53.781Z,6.80
2019-05-13T21:30:32.142Z,7.05
2019-05-13T21:33:11.442Z,7.03
2019-05-13T21:35:44.140Z,8.45
2019-05-13T21:38:22.272Z,10.63
2019-05-13T21:40:54.402Z,7.92
2019-05-13T21:43:33.904Z,8.45
2019-05-13T21:46:07.660Z,7.30
2019-05-13T21:48:44.133Z,6.65
2019-05-13T21:51:25.200Z,5.60
2019-05-13T21:54:01.215Z,7.87
2019-05-13T21:56:32.121Z,6.70
2019-05-13T21:59:11.942Z,6.75
2019-05-13T22:02:12.763Z,8.40
2019-05-13T22:04:56.522Z,7.33
2019-05-13T22:07:42.139Z,8.20
2019-05-13T22:10:18.800Z,7.20
2019-05-13T22:13:01.406Z,5.95
2019-05-13T22:15:34.221Z,7.67
2019-05-13T22:21:18.780Z,6.58
2019-05-13T22:23:51.872Z,6.35
2019-05-13T22:26:31.072Z,7.65
2019-05-13T22:29:08.295Z,8.15
2019-05-13T22:31:41.988Z,7.80
2019-05-13T22:34:16.800Z,6.72
2019-05-13T22:36:51.571Z,7.33
2019-05-13T22:39:22.051Z,6.05
2019-05-13T22:41:55.740Z,6.95
2019-05-13T22:44:27.341Z,6.20
2019-05-13T22:47:03.160Z,7.67
2019-05-13T22:49:49.560Z,7.58
2019-05-13T22:52:28.496Z,7.05
2019-05-13T22:55:02.450Z,5.75
2019-05-13T22:57:37.540Z,7.33
2019-05-13T23:00:11.821Z,6.92
2019-05-13T23:02:52.288Z,6.67
2019-05-13T23:05:21.726Z,6.97
2019-05-13T23:08:02.039Z,6.55
2019-05-13T23:10:33.180Z,4.85
2019-05-13T23:13:04.560Z,5.37
2019-05-13T23:15:37.460Z,6.08
2019-05-13T23:18:06.990Z,7.08
2019-05-13T23:20:42.221Z,4.83
2019-05-13T23:23:22.140Z,8.73
2019-05-13T23:26:00.140Z,7.70
2019-05-13T23:28:34.152Z,6.55
2019-05-13T23:31:19.229Z,6.15
2019-05-13T23:34:01.276Z,6.42
2019-05-13T23:36:32.121Z,5.90
2019-05-13T23:39:14.501Z,5.20
2019-05-13T23:41:52.133Z,7.78
2019-05-13T23:44:32.190Z,5.37
2019-05-13T23:47:01.681Z,5.40
2019-05-13T23:49:42.097Z,4.80
2019-05-13T23:52:24.021Z,4.83
2019-05-13T23:55:07.742Z,6.30
2019-05-13T23:57:42.193Z,7.95
